createdAt,value
2023-05-05T00:01:56.144Z,48.63
2023-05-05T00:07:00.844Z,48.86
2023-05-05T00:12:04.540Z,48.84
2023-05-05T00:17:10.119Z,48.72
2023-05-05T00:22:14.613Z,48.83
2023-05-05T00:27:18.403Z,49.36
2023-05-05T00:32:23.930Z,49.89
2023-05-05T00:37:27.505Z,50.61
2023-05-05T00:42:40.891Z,47.78
2023-05-05T00:47:49.342Z,49.23
2023-05-05T00:52:55.376Z,50.68
2023-05-05T00:57:59.472Z,50.92
2023-05-05T01:03:29.404Z,46.45
2023-05-05T01:08:45.302Z,48.82
2023-05-05T01:13:58.418Z,50.04
2023-05-05T01:19:16.166Z,49.58
2023-05-05T01:24:50.195Z,47.46
2023-05-05T01:30:09.916Z,48.94
2023-05-05T01:35:20.720Z,49.96
2023-05-05T01:40:34.808Z,49.04
2023-05-05T01:45:42.175Z,51.01
2023-05-05T01:50:50.007Z,50.64
2023-05-05T01:55:55.691Z,51.38
2023-05-05T02:01:00.449Z,51.54
2023-05-05T02:06:08.128Z,51.80
2023-05-05T02:11:12.825Z,51.38
2023-05-05T02:16:18.090Z,51.96
2023-05-05T02:21:23.331Z,51.99
2023-05-05T02:26:29.103Z,52.36
2023-05-05T02:31:37.703Z,51.11
2023-05-05T02:36:45.965Z,52.34
2023-05-05T02:41:52.457Z,52.46
2023-05-05T02:47:05.017Z,52.63
2023-05-05T02:52:12.549Z,51.74
2023-05-05T02:57:21.446Z,51.85
2023-05-05T03:02:44.904Z,50.46
2023-05-05T03:07:56.791Z,51.77
2023-05-05T03:13:03.836Z,52.86
2023-05-05T03:18:17.722Z,52.87
2023-05-05T03:23:27.868Z,53.24
2023-05-05T03:28:35.886Z,53.85
2023-05-05T03:33:46.722Z,54.17
2023-05-05T03:38:51.954Z,54.41
2023-05-05T03:43:56.913Z,54.46
2023-05-05T03:49:01.260Z,54.92
2023-05-05T03:54:06.914Z,55.12
2023-05-05T03:59:11.030Z,56.53
2023-05-05T04:04:16.146Z,56.32
2023-05-05T04:09:21.352Z,55.48
2023-05-05T04:14:25.061Z,56.42
2023-05-05T04:19:29.392Z,56.49
2023-05-05T04:24:34.488Z,56.90
2023-05-05T04:29:38.218Z,57.47
2023-05-05T04:34:41.995Z,57.86
2023-05-05T04:39:47.123Z,58.05
2023-05-05T04:44:51.110Z,57.76
2023-05-05T04:49:56.034Z,58.12
2023-05-05T04:55:01.547Z,58.02
2023-05-05T05:00:06.765Z,58.05
2023-05-05T05:05:11.284Z,58.06
2023-05-05T05:10:17.353Z,57.85
2023-05-05T05:15:20.953Z,58.45
2023-05-05T05:20:24.814Z,58.06
2023-05-05T05:25:30.455Z,57.54
2023-05-05T05:30:34.375Z,57.48
2023-05-05T05:35:40.596Z,58.34
2023-05-05T05:40:46.414Z,57.79
2023-05-05T05:45:52.016Z,59.94
2023-05-05T05:50:57.090Z,57.92
2023-05-05T05:56:03.401Z,56.33
2023-05-05T06:01:07.441Z,58.50
2023-05-05T06:06:13.297Z,58.56
2023-05-05T06:11:18.440Z,58.32
2023-05-05T06:16:22.681Z,58.03
2023-05-05T06:21:27.881Z,58.98
2023-05-05T06:26:33.333Z,58.49
2023-05-05T06:31:37.333Z,60.24
2023-05-05T06:36:41.252Z,59.04
2023-05-05T06:41:46.444Z,57.77
2023-05-05T06:46:51.342Z,56.13
2023-05-05T06:51:55.041Z,56.67
2023-05-05T06:57:00.007Z,56.87
2023-05-05T07:02:04.123Z,55.83
2023-05-05T07:07:07.846Z,55.73
2023-05-05T07:12:12.798Z,55.68
2023-05-05T07:17:16.570Z,56.18
2023-05-05T07:22:22.222Z,56.07
2023-05-05T07:27:29.056Z,54.80
2023-05-05T07:32:32.729Z,55.76
2023-05-05T07:37:36.874Z,55.02
2023-05-05T07:42:42.354Z,54.89
2023-05-05T07:47:46.607Z,54.68
2023-05-05T07:52:56.364Z,54.31
2023-05-05T07:58:12.201Z,53.71
2023-05-05T08:03:15.978Z,54.41
2023-05-05T08:08:19.845Z,53.28
2023-05-05T08:13:24.990Z,53.79
2023-05-05T08:18:28.532Z,54.81
2023-05-05T08:23:32.373Z,54.19
2023-05-05T08:28:37.682Z,53.94
2023-05-05T08:33:41.422Z,53.97
2023-05-05T08:38:45.171Z,53.94
2023-05-05T08:43:50.733Z,54.26
2023-05-05T08:48:56.371Z,55.11
2023-05-05T08:54:03.917Z,55.02
2023-05-05T08:59:11.478Z,54.43
2023-05-05T09:04:15.574Z,53.90
2023-05-05T09:09:20.809Z,54.97
2023-05-05T09:14:26.059Z,55.23
2023-05-05T09:19:29.855Z,55.44
2023-05-05T09:24:33.691Z,54.00
2023-05-05T09:29:38.965Z,54.71
2023-05-05T09:34:42.573Z,54.33
2023-05-05T09:39:55.023Z,52.25
2023-05-05T09:45:00.381Z,53.00
2023-05-05T09:50:06.164Z,51.81
2023-05-05T09:55:18.907Z,51.20
2023-05-05T10:00:38.494Z,50.97
2023-05-05T10:05:50.591Z,49.61
2023-05-05T10:10:56.165Z,49.62
2023-05-05T10:16:04.441Z,50.26
2023-05-05T10:21:10.187Z,50.21
2023-05-05T10:26:15.650Z,49.79
2023-05-05T10:31:29.752Z,50.24
2023-05-05T10:36:34.560Z,50.37
2023-05-05T10:41:38.829Z,50.52
2023-05-05T10:46:45.029Z,50.25
2023-05-05T10:51:54.754Z,50.77
2023-05-05T10:57:02.622Z,50.62
2023-05-05T11:02:21.452Z,51.26
2023-05-05T11:07:27.049Z,52.01
2023-05-05T11:12:31.600Z,50.80
2023-05-05T11:17:46.945Z,50.15
2023-05-05T11:23:25.321Z,49.38
2023-05-05T11:28:31.171Z,49.47
2023-05-05T11:33:37.685Z,48.64
2023-05-05T11:39:08.759Z,48.61
2023-05-05T11:44:13.785Z,45.97
2023-05-05T11:49:29.412Z,47.34
2023-05-05T11:54:33.721Z,46.90
2023-05-05T11:59:38.486Z,48.54
2023-05-05T12:04:43.870Z,49.52
2023-05-05T12:09:49.293Z,46.12
2023-05-05T12:14:54.406Z,46.40
2023-05-05T12:19:59.342Z,45.65
2023-05-05T12:25:04.784Z,45.42
2023-05-05T12:30:17.122Z,45.52
2023-05-05T12:35:22.520Z,46.04
2023-05-05T12:40:49.117Z,45.87
2023-05-05T12:46:00.706Z,42.93
2023-05-05T12:51:32.201Z,41.22
2023-05-05T12:56:40.606Z,44.69
2023-05-05T13:01:50.960Z,41.93
2023-05-05T13:12:25.171Z,41.53
2023-05-05T13:17:29.138Z,39.01
2023-05-05T13:22:32.811Z,41.03
2023-05-05T13:27:38.407Z,40.37
2023-05-05T13:32:42.304Z,39.05
2023-05-05T13:37:47.174Z,39.59
2023-05-05T13:42:52.206Z,39.70
2023-05-05T13:47:56.190Z,36.84
2023-05-05T13:52:59.887Z,36.96
2023-05-05T13:58:04.846Z,37.33
2023-05-05T14:03:08.511Z,38.00
2023-05-05T14:08:12.083Z,37.89
2023-05-05T14:13:20.026Z,39.47
2023-05-05T14:18:23.662Z,39.05
2023-05-05T14:23:27.311Z,38.28
2023-05-05T14:28:32.396Z,40.05
2023-05-05T14:33:36.009Z,40.03
2023-05-05T14:38:39.818Z,39.59
2023-05-05T14:43:44.826Z,39.41
2023-05-05T14:48:48.430Z,39.49
2023-05-05T14:53:51.962Z,39.34
2023-05-05T14:58:56.972Z,41.84
2023-05-05T15:04:00.572Z,41.20
2023-05-05T15:09:04.239Z,41.20
2023-05-05T15:14:09.479Z,41.16
2023-05-05T15:19:13.154Z,40.82
2023-05-05T15:24:16.951Z,39.90
2023-05-05T15:29:22.326Z,40.51
2023-05-05T15:34:26.266Z,42.53
2023-05-05T15:39:29.796Z,41.69
2023-05-05T15:44:34.733Z,43.04
2023-05-05T15:49:38.399Z,43.50
2023-05-05T15:54:41.983Z,43.47
2023-05-05T15:59:46.954Z,44.17
2023-05-05T16:04:50.534Z,45.46
2023-05-05T16:09:54.223Z,45.89
2023-05-05T16:14:59.118Z,45.21
2023-05-05T16:20:02.867Z,46.75
2023-05-05T16:25:07.737Z,48.01
2023-05-05T16:30:15.457Z,49.53
2023-05-05T16:35:24.612Z,50.64
2023-05-05T16:40:28.081Z,54.37
2023-05-05T16:45:37.915Z,55.40
2023-05-05T16:50:43.825Z,55.56
2023-05-05T16:55:51.224Z,57.14
2023-05-05T17:01:02.889Z,56.46
2023-05-05T17:06:11.835Z,59.93
2023-05-05T17:11:29.600Z,58.80
2023-05-05T17:16:36.473Z,58.30
2023-05-05T17:21:55.932Z,59.17
2023-05-05T17:27:18.598Z,59.72
2023-05-05T17:32:28.224Z,59.69
2023-05-05T17:37:32.571Z,60.04
2023-05-05T17:42:39.880Z,59.16
2023-05-05T17:47:48.829Z,60.39
2023-05-05T17:52:52.547Z,60.37
2023-05-05T17:57:59.123Z,58.85
2023-05-05T18:03:04.321Z,59.38
2023-05-05T18:08:08.090Z,60.63
2023-05-05T18:13:11.931Z,61.83
2023-05-05T18:18:17.031Z,62.97
2023-05-05T18:23:20.807Z,63.33
2023-05-05T18:28:24.551Z,63.89
2023-05-05T18:33:29.865Z,63.73
2023-05-05T18:38:33.573Z,64.85
2023-05-05T18:43:37.271Z,65.70
2023-05-05T18:48:42.242Z,64.30
2023-05-05T18:53:46.338Z,64.38
2023-05-05T18:58:50.134Z,64.14
2023-05-05T19:03:55.216Z,63.89
2023-05-05T19:08:59.489Z,63.85
2023-05-05T19:14:03.137Z,64.46
2023-05-05T19:19:08.204Z,64.27
2023-05-05T19:24:11.722Z,64.60
2023-05-05T19:29:16.268Z,64.41
2023-05-05T19:34:21.730Z,64.81
2023-05-05T19:39:25.445Z,64.97
2023-05-05T19:44:29.184Z,65.34
2023-05-05T19:49:34.061Z,64.97
2023-05-05T19:54:37.734Z,65.08
2023-05-05T19:59:42.058Z,64.98
2023-05-05T20:04:46.999Z,64.97
2023-05-05T20:09:50.638Z,67.61
2023-05-05T20:14:54.191Z,67.08
2023-05-05T20:19:59.241Z,67.55
2023-05-05T20:25:02.899Z,67.12
2023-05-05T20:30:08.569Z,66.44
2023-05-05T20:35:13.899Z,66.23
2023-05-05T20:40:17.767Z,66.44
2023-05-05T20:45:21.370Z,65.88
2023-05-05T20:50:26.343Z,65.17
2023-05-05T20:55:30.056Z,65.56
2023-05-05T21:00:33.961Z,64.94
2023-05-05T21:05:40.194Z,64.68
2023-05-05T21:10:43.870Z,64.68
2023-05-05T21:15:47.494Z,64.52
2023-05-05T21:21:27.644Z,64.91
2023-05-05T21:27:41.423Z,62.30
2023-05-05T21:33:53.231Z,62.41
2023-05-05T21:44:47.947Z,64.30
2023-05-05T21:50:13.374Z,63.92
2023-05-05T21:55:26.469Z,63.79
2023-05-05T22:00:31.282Z,63.75
2023-05-05T22:05:35.104Z,62.96
2023-05-05T22:10:42.150Z,62.99
2023-05-05T22:15:47.430Z,63.73
2023-05-05T22:20:51.475Z,64.37
2023-05-05T22:25:57.015Z,64.09
2023-05-05T22:31:00.783Z,63.44
2023-05-05T22:36:04.706Z,63.30
2023-05-05T22:41:09.720Z,63.49
2023-05-05T22:46:13.316Z,63.46
2023-05-05T22:51:16.952Z,63.37
2023-05-05T22:56:21.961Z,62.88
2023-05-05T23:01:27.929Z,63.54
2023-05-05T23:06:32.230Z,64.22
2023-05-05T23:11:37.354Z,64.14
2023-05-05T23:16:41.049Z,63.78
2023-05-05T23:21:52.808Z,63.62
2023-05-05T23:27:01.912Z,63.70
2023-05-05T23:32:05.799Z,63.71
2023-05-05T23:37:09.258Z,63.63
2023-05-05T23:42:14.215Z,63.34
2023-05-05T23:47:17.678Z,63.52
2023-05-05T23:52:21.846Z,64.22
2023-05-05T23:57:26.826Z,64.59
